Time;durP1;ratioP1;P1;durP2;ratioP2;P2;SDS_P1;SDS_P2;PMS_P1;PMS_P2;Temp;Humidity;BMP_temperature;BMP_pressure;BME280_temperature;BME280_humidity;BME280_pressure;Samples;Min_cycle;Max_cycle;Signal;HPM_P1;HPM_P2
2023/07/08 00:02:23;;;;;;;67.78;64.38;;;;;;;;;;5012532;28;20466;-67
2023/07/08 00:04:48;;;;;;;84.78;80.53;;;;;;;;;;5012270;28;20488;-68
2023/07/08 00:07:22;;;;;;;90.97;86.32;;;;;;;;;;5013430;28;20033;-68
2023/07/08 00:09:48;;;;;;;102.32;97.20;;;;;;;;;;5015243;28;20088;-67
2023/07/08 00:12:13;;;;;;;86.78;82.43;;;;;;;;;;5011370;28;20499;-68
2023/07/08 00:14:38;;;;;;;117.40;111.50;;;;;;;;;;5012485;28;20048;-68
2023/07/08 00:17:12;;;;;;;90.18;85.65;;;;;;;;;;5009034;28;20108;-67
2023/07/08 00:19:38;;;;;;;110.13;104.68;;;;;;;;;;5013365;28;20040;-67
2023/07/08 00:22:11;;;;;;;83.88;79.68;;;;;;;;;;5010401;28;20034;-68
2023/07/08 00:24:36;;;;;;;78.30;74.40;;;;;;;;;;5012260;28;20033;-68
2023/07/08 00:27:01;;;;;;;106.15;100.90;;;;;;;;;;5012503;28;20048;-67
2023/07/08 00:29:26;;;;;;;77.35;73.35;;;;;;;;;;5013984;28;20041;-68
2023/07/08 00:31:52;;;;;;;79.20;75.10;;;;;;;;;;5014320;28;20033;-68
2023/07/08 00:34:17;;;;;;;73.55;69.38;;;;;;;;;;5008517;28;20038;-68
2023/07/08 00:36:42;;;;;;;70.35;66.70;;;;;;;;;;5010471;28;20463;-68
2023/07/08 00:39:14;;;;;;;70.38;66.70;;;;;;;;;;5011201;28;20038;-68
2023/07/08 00:41:42;;;;;;;40.70;38.58;;;;;;;;;;5012177;28;20042;-68
2023/07/08 00:44:11;;;;;;;82.53;78.40;;;;;;;;;;5011439;28;20475;-68
2023/07/08 00:46:42;;;;;;;95.43;90.43;;;;;;;;;;5009222;28;20099;-68
2023/07/08 00:49:07;;;;;;;105.65;100.38;;;;;;;;;;5016356;28;20500;-68
2023/07/08 00:51:34;;;;;;;111.93;106.38;;;;;;;;;;5012296;28;20545;-68
2023/07/08 00:53:59;;;;;;;111.75;106.10;;;;;;;;;;5011871;28;20048;-68
2023/07/08 00:56:41;;;;;;;109.43;103.97;;;;;;;;;;5012373;28;20349;-67
2023/07/08 00:59:15;;;;;;;94.78;90.07;;;;;;;;;;5010245;28;20054;-67
2023/07/08 01:01:42;;;;;;;90.07;84.68;;;;;;;;;;5007711;28;20408;-67
2023/07/08 01:04:30;;;;;;;61.17;58.08;;;;;;;;;;5011550;28;20045;-67
2023/07/08 01:06:58;;;;;;;49.88;47.33;;;;;;;;;;5012855;28;20137;-67
2023/07/08 01:09:30;;;;;;;53.90;51.10;;;;;;;;;;5008967;28;20042;-67
2023/07/08 01:12:00;;;;;;;91.68;87.05;;;;;;;;;;5010347;28;20087;-67
2023/07/08 01:14:28;;;;;;;81.13;77.03;;;;;;;;;;5012058;28;20499;-67
2023/07/08 01:16:53;;;;;;;86.25;81.97;;;;;;;;;;5009513;28;20522;-67
2023/07/08 01:19:31;;;;;;;87.03;82.63;;;;;;;;;;5015824;28;20041;-67
2023/07/08 01:21:56;;;;;;;50.30;47.60;;;;;;;;;;5009950;28;20402;-67
2023/07/08 01:24:22;;;;;;;53.85;51.08;;;;;;;;;;5015105;28;20034;-67
2023/07/08 01:26:48;;;;;;;63.83;60.47;;;;;;;;;;5009343;28;20103;-67
2023/07/08 01:29:13;;;;;;;65.20;61.92;;;;;;;;;;5010936;28;20120;-67
2023/07/08 01:31:39;;;;;;;74.25;70.47;;;;;;;;;;5014517;28;20034;-66
2023/07/08 01:34:05;;;;;;;72.05;68.30;;;;;;;;;;5010061;28;20403;-67
2023/07/08 01:36:38;;;;;;;71.47;67.85;;;;;;;;;;5011769;28;20037;-67
2023/07/08 01:39:04;;;;;;;53.78;51.03;;;;;;;;;;5013822;28;20044;-67
2023/07/08 01:41:29;;;;;;;38.38;36.35;;;;;;;;;;5013406;28;20037;-67
2023/07/08 01:43:55;;;;;;;25.15;23.67;;;;;;;;;;5014487;28;20033;-67
2023/07/08 01:46:24;;;;;;;19.73;18.52;;;;;;;;;;5014775;28;20080;-67
2023/07/08 01:48:54;;;;;;;18.13;17.08;;;;;;;;;;5013737;28;20073;-68
2023/07/08 01:51:19;;;;;;;15.43;14.50;;;;;;;;;;5015656;28;20439;-67
2023/07/08 01:53:45;;;;;;;17.40;16.30;;;;;;;;;;5013573;28;20044;-67
2023/07/08 01:56:13;;;;;;;16.63;15.63;;;;;;;;;;5014090;28;20041;-67
2023/07/08 01:58:38;;;;;;;19.20;18.00;;;;;;;;;;5013419;28;20037;-67
2023/07/08 02:01:04;;;;;;;17.65;16.60;;;;;;;;;;5014366;28;20111;-67
2023/07/08 02:03:30;;;;;;;20.27;18.98;;;;;;;;;;5013880;28;20072;-67
2023/07/08 02:05:55;;;;;;;18.77;17.67;;;;;;;;;;5014385;28;20595;-67
2023/07/08 02:08:21;;;;;;;17.30;16.30;;;;;;;;;;5015972;28;20033;-67
2023/07/08 02:10:51;;;;;;;20.25;19.05;;;;;;;;;;5014738;28;20033;-67
2023/07/08 02:13:17;;;;;;;16.80;15.77;;;;;;;;;;5019636;28;20064;-67
2023/07/08 02:15:42;;;;;;;16.55;15.45;;;;;;;;;;5012899;28;20038;-67
2023/07/08 02:18:08;;;;;;;17.52;16.23;;;;;;;;;;5015334;28;20697;-67
2023/07/08 02:20:33;;;;;;;16.10;15.00;;;;;;;;;;5013926;28;20416;-67
2023/07/08 02:22:58;;;;;;;16.08;14.98;;;;;;;;;;5015432;28;20460;-67
2023/07/08 02:25:24;;;;;;;13.77;12.85;;;;;;;;;;5015344;28;20030;-67
2023/07/08 02:27:49;;;;;;;15.95;14.88;;;;;;;;;;5013444;28;20084;-67
2023/07/08 02:30:15;;;;;;;16.80;15.80;;;;;;;;;;5013353;28;20048;-67
2023/07/08 02:32:40;;;;;;;15.02;13.93;;;;;;;;;;5015215;28;20061;-67
2023/07/08 02:35:08;;;;;;;13.90;13.07;;;;;;;;;;5012323;28;20045;-67
2023/07/08 02:37:33;;;;;;;17.58;16.38;;;;;;;;;;5012928;28;20112;-67
2023/07/08 02:39:58;;;;;;;16.17;15.18;;;;;;;;;;5015859;28;20041;-67
2023/07/08 02:42:24;;;;;;;15.45;14.55;;;;;;;;;;5016290;28;20083;-67
2023/07/08 02:44:49;;;;;;;15.90;14.90;;;;;;;;;;5018440;28;20464;-67
2023/07/08 02:47:14;;;;;;;27.33;25.83;;;;;;;;;;5012714;28;20034;-67
2023/07/08 02:49:40;;;;;;;30.95;29.25;;;;;;;;;;5018232;28;20039;-68
2023/07/08 02:52:05;;;;;;;37.03;34.05;;;;;;;;;;5013784;28;20372;-67
2023/07/08 02:54:31;;;;;;;33.42;31.67;;;;;;;;;;5013168;28;20045;-67
2023/07/08 02:56:56;;;;;;;33.45;31.70;;;;;;;;;;5020402;28;20387;-67
2023/07/08 02:59:21;;;;;;;34.45;32.53;;;;;;;;;;5014834;28;20075;-67
2023/07/08 03:01:47;;;;;;;33.03;31.25;;;;;;;;;;5016199;28;20041;-67
2023/07/08 03:04:13;;;;;;;30.23;28.65;;;;;;;;;;5016321;28;20052;-67
2023/07/08 03:06:43;;;;;;;30.92;29.30;;;;;;;;;;5015370;28;20065;-67
2023/07/08 03:09:09;;;;;;;21.77;20.25;;;;;;;;;;5010683;28;20091;-67
2023/07/08 03:11:35;;;;;;;16.00;15.10;;;;;;;;;;5016234;28;20511;-67
2023/07/08 03:14:01;;;;;;;15.43;14.52;;;;;;;;;;5012761;28;20052;-67
2023/07/08 03:16:26;;;;;;;16.02;14.93;;;;;;;;;;5013085;28;20474;-67
2023/07/08 03:18:52;;;;;;;14.65;13.82;;;;;;;;;;5014111;28;20043;-67
2023/07/08 03:21:18;;;;;;;29.33;27.73;;;;;;;;;;5017127;28;20117;-67
2023/07/08 03:23:43;;;;;;;27.70;26.23;;;;;;;;;;5014132;28;20104;-67
2023/07/08 03:26:18;;;;;;;27.77;26.30;;;;;;;;;;5013555;28;20281;-67
2023/07/08 03:28:44;;;;;;;20.95;19.75;;;;;;;;;;5012286;28;20030;-67
2023/07/08 03:31:10;;;;;;;18.15;17.10;;;;;;;;;;5013582;28;20094;-67
2023/07/08 03:33:35;;;;;;;17.90;16.90;;;;;;;;;;5015180;28;20052;-67
2023/07/08 03:36:02;;;;;;;17.60;16.42;;;;;;;;;;5013153;28;20436;-67
2023/07/08 03:38:28;;;;;;;15.90;15.00;;;;;;;;;;5012212;28;20124;-67
2023/07/08 03:40:53;;;;;;;16.33;15.32;;;;;;;;;;5012102;28;20125;-67
2023/07/08 03:43:18;;;;;;;15.63;14.73;;;;;;;;;;5010925;28;20033;-68
2023/07/08 03:45:45;;;;;;;19.73;18.52;;;;;;;;;;5015469;28;20053;-68
2023/07/08 03:48:11;;;;;;;16.15;15.15;;;;;;;;;;5014845;28;20423;-67
2023/07/08 03:50:37;;;;;;;19.77;18.65;;;;;;;;;;5014220;28;20061;-67
2023/07/08 03:53:02;;;;;;;20.45;19.08;;;;;;;;;;5009172;28;20043;-67
2023/07/08 03:55:28;;;;;;;25.17;23.75;;;;;;;;;;5013741;28;20060;-67
2023/07/08 03:57:53;;;;;;;21.45;19.92;;;;;;;;;;5008881;28;20098;-67
2023/07/08 04:00:19;;;;;;;24.70;23.17;;;;;;;;;;5013399;28;20032;-67
2023/07/08 04:02:46;;;;;;;18.33;17.23;;;;;;;;;;5008733;28;20033;-67
2023/07/08 04:05:16;;;;;;;19.73;18.55;;;;;;;;;;5012340;28;20037;-67
2023/07/08 04:07:41;;;;;;;15.60;14.70;;;;;;;;;;5006296;28;20069;-67
2023/07/08 04:10:08;;;;;;;15.60;14.52;;;;;;;;;;5010368;28;20061;-67
2023/07/08 04:12:33;;;;;;;23.85;22.05;;;;;;;;;;5009697;28;20044;-67
2023/07/08 04:14:59;;;;;;;25.15;23.75;;;;;;;;;;5006124;28;20055;-67
2023/07/08 04:17:25;;;;;;;15.15;14.25;;;;;;;;;;5012795;28;20037;-67
2023/07/08 04:19:50;;;;;;;30.02;28.38;;;;;;;;;;5011058;28;20072;-67
2023/07/08 04:22:16;;;;;;;21.38;20.17;;;;;;;;;;5009851;28;20448;-66
2023/07/08 04:24:41;;;;;;;36.22;34.30;;;;;;;;;;5010962;28;20064;-67
2023/07/08 04:27:13;;;;;;;39.25;36.90;;;;;;;;;;5012929;28;20523;-67
2023/07/08 04:29:38;;;;;;;45.22;41.03;;;;;;;;;;5005845;28;20399;-67
2023/07/08 04:32:04;;;;;;;45.13;42.70;;;;;;;;;;5010560;28;20037;-67
2023/07/08 04:34:29;;;;;;;47.28;44.70;;;;;;;;;;5009378;28;20127;-67
2023/07/08 04:36:55;;;;;;;27.02;25.58;;;;;;;;;;5012596;28;20045;-67
2023/07/08 04:39:20;;;;;;;55.03;52.13;;;;;;;;;;5007972;28;20033;-67
2023/07/08 04:41:46;;;;;;;41.22;39.10;;;;;;;;;;5012729;28;20033;-67
2023/07/08 04:44:11;;;;;;;54.50;51.72;;;;;;;;;;5006366;28;20034;-67
2023/07/08 04:46:40;;;;;;;63.60;60.40;;;;;;;;;;5011600;28;20038;-67
2023/07/08 04:49:09;;;;;;;58.38;55.40;;;;;;;;;;5010631;28;20040;-67
2023/07/08 04:51:35;;;;;;;69.13;65.68;;;;;;;;;;5013393;28;20033;-67
2023/07/08 04:54:01;;;;;;;71.82;68.20;;;;;;;;;;5010292;28;20045;-67
2023/07/08 04:56:37;;;;;;;40.28;38.20;;;;;;;;;;5009656;28;20038;-67
2023/07/08 04:59:03;;;;;;;50.30;47.70;;;;;;;;;;5010758;28;20056;-67
2023/07/08 05:01:28;;;;;;;52.75;50.00;;;;;;;;;;5010054;28;20689;-68
2023/07/08 05:03:53;;;;;;;46.60;44.13;;;;;;;;;;5005000;28;20045;-67
2023/07/08 05:06:19;;;;;;;86.90;82.57;;;;;;;;;;5011045;28;20527;-67
2023/07/08 05:08:44;;;;;;;40.15;37.70;;;;;;;;;;5010261;28;20026;-66
2023/07/08 05:11:09;;;;;;;43.97;41.58;;;;;;;;;;5011222;28;20052;-66
2023/07/08 05:13:35;;;;;;;44.53;42.20;;;;;;;;;;5009715;28;20041;-66
2023/07/08 05:16:00;;;;;;;44.97;42.65;;;;;;;;;;5016875;28;20038;-66
2023/07/08 05:18:25;;;;;;;46.17;43.70;;;;;;;;;;5015008;28;20030;-66
2023/07/08 05:20:52;;;;;;;46.83;44.40;;;;;;;;;;5019447;28;20030;-67
2023/07/08 05:23:17;;;;;;;43.22;40.88;;;;;;;;;;5016511;28;20069;-67
2023/07/08 05:25:43;;;;;;;43.30;41.00;;;;;;;;;;5015803;28;20083;-67
2023/07/08 05:28:09;;;;;;;50.05;47.45;;;;;;;;;;5014966;28;20052;-67
2023/07/08 05:30:35;;;;;;;44.78;42.45;;;;;;;;;;5012959;28;20462;-66
2023/07/08 05:33:00;;;;;;;43.13;40.90;;;;;;;;;;5014726;28;20076;-67
2023/07/08 05:35:26;;;;;;;44.08;41.78;;;;;;;;;;5014010;28;20394;-67
2023/07/08 05:37:51;;;;;;;45.47;43.03;;;;;;;;;;5016168;28;20038;-67
2023/07/08 05:40:16;;;;;;;48.60;45.90;;;;;;;;;;5015286;28;20367;-66
2023/07/08 05:42:42;;;;;;;47.15;44.25;;;;;;;;;;5014437;28;20122;-67
2023/07/08 05:45:09;;;;;;;41.38;39.00;;;;;;;;;;5015253;28;20049;-67
2023/07/08 05:47:35;;;;;;;39.75;37.58;;;;;;;;;;5015950;28;20029;-67
2023/07/08 05:50:01;;;;;;;38.70;36.45;;;;;;;;;;5013563;28;20041;-66
2023/07/08 05:52:26;;;;;;;49.90;47.35;;;;;;;;;;5017793;28;20422;-66
2023/07/08 05:54:51;;;;;;;68.63;65.22;;;;;;;;;;5013421;28;20095;-66
2023/07/08 05:57:17;;;;;;;94.45;89.63;;;;;;;;;;5009594;28;20037;-65
2023/07/08 05:59:43;;;;;;;58.20;55.17;;;;;;;;;;5015245;28;20037;-67
2023/07/08 06:02:10;;;;;;;55.50;52.67;;;;;;;;;;5012608;28;20111;-66
2023/07/08 06:04:36;;;;;;;59.33;56.33;;;;;;;;;;5014627;28;20029;-66
2023/07/08 06:07:01;;;;;;;68.97;65.50;;;;;;;;;;5012859;28;20087;-67
2023/07/08 06:09:26;;;;;;;87.72;83.38;;;;;;;;;;5016494;28;20030;-66
2023/07/08 06:11:52;;;;;;;77.72;73.80;;;;;;;;;;5016042;28;20026;-66
2023/07/08 06:14:17;;;;;;;104.03;98.88;;;;;;;;;;5013741;28;20030;-66
2023/07/08 06:16:42;;;;;;;72.97;69.20;;;;;;;;;;5015693;28;20486;-65
2023/07/08 06:19:08;;;;;;;101.30;96.22;;;;;;;;;;5014834;28;20051;-66
2023/07/08 06:21:34;;;;;;;87.15;82.78;;;;;;;;;;5016998;28;20116;-66
2023/07/08 06:23:59;;;;;;;69.30;65.78;;;;;;;;;;5014227;28;20139;-65
2023/07/08 06:26:24;;;;;;;83.55;79.38;;;;;;;;;;5014229;28;20037;-67
2023/07/08 06:28:50;;;;;;;56.83;53.92;;;;;;;;;;5009182;28;20056;-66
2023/07/08 06:31:15;;;;;;;75.13;71.35;;;;;;;;;;5014134;28;20099;-66
2023/07/08 06:33:41;;;;;;;144.80;137.63;;;;;;;;;;5013486;28;20037;-66
2023/07/08 06:36:07;;;;;;;56.00;53.13;;;;;;;;;;5017201;28;20905;-66
2023/07/08 06:38:33;;;;;;;44.88;42.58;;;;;;;;;;5015623;28;20123;-66
2023/07/08 06:40:58;;;;;;;39.45;37.40;;;;;;;;;;5017224;28;20040;-66
2023/07/08 06:43:23;;;;;;;38.20;36.17;;;;;;;;;;5014929;28;20447;-66
2023/07/08 06:45:49;;;;;;;40.15;38.05;;;;;;;;;;5013294;28;20333;-66
2023/07/08 06:48:14;;;;;;;37.25;35.25;;;;;;;;;;5014195;28;20096;-67
2023/07/08 06:50:43;;;;;;;34.92;33.03;;;;;;;;;;5016996;28;20111;-66
2023/07/08 06:53:08;;;;;;;34.08;32.28;;;;;;;;;;5014734;28;20116;-67
2023/07/08 06:55:33;;;;;;;42.92;40.70;;;;;;;;;;5013088;28;20034;-67
2023/07/08 06:57:59;;;;;;;32.15;30.30;;;;;;;;;;5012938;28;20789;-66
2023/07/08 07:00:24;;;;;;;33.33;31.38;;;;;;;;;;5010562;28;20514;-65
2023/07/08 07:02:49;;;;;;;110.80;105.32;;;;;;;;;;5013012;28;20052;-66
2023/07/08 07:05:15;;;;;;;140.40;133.43;;;;;;;;;;5012978;28;20033;-66
2023/07/08 07:07:40;;;;;;;69.15;65.63;;;;;;;;;;5013565;28;20034;-65
2023/07/08 07:10:07;;;;;;;83.25;78.95;;;;;;;;;;5011448;28;20503;-66
2023/07/08 07:12:34;;;;;;;42.95;40.75;;;;;;;;;;5013618;28;20037;-65
2023/07/08 07:14:59;;;;;;;40.83;38.70;;;;;;;;;;5016181;28;20106;-66
2023/07/08 07:17:26;;;;;;;36.75;34.88;;;;;;;;;;5011350;28;20551;-66
2023/07/08 07:19:52;;;;;;;51.17;48.50;;;;;;;;;;5008395;28;20570;-66
2023/07/08 07:22:17;;;;;;;43.45;41.17;;;;;;;;;;5012006;28;20045;-66
2023/07/08 07:24:43;;;;;;;71.18;67.60;;;;;;;;;;5010623;28;20536;-65
2023/07/08 07:27:09;;;;;;;100.55;95.40;;;;;;;;;;5012094;28;20125;-65
2023/07/08 07:30:01;;;;;;;55.08;52.22;;;;;;;;;;5010247;28;20342;-65
2023/07/08 07:32:26;;;;;;;82.97;78.88;;;;;;;;;;5013499;28;20195;-65
2023/07/08 07:34:52;;;;;;;80.88;76.70;;;;;;;;;;5012427;28;20079;-65
2023/07/08 07:37:20;;;;;;;81.97;77.53;;;;;;;;;;5012114;28;20034;-66
2023/07/08 07:39:45;;;;;;;88.72;84.25;;;;;;;;;;5011036;28;20041;-65
2023/07/08 07:42:13;;;;;;;83.32;79.13;;;;;;;;;;5007758;28;20041;-65
2023/07/08 07:44:41;;;;;;;80.82;76.82;;;;;;;;;;5013480;28;20037;-65
2023/07/08 07:47:08;;;;;;;84.65;80.43;;;;;;;;;;5012976;28;20135;-65
2023/07/08 07:49:33;;;;;;;83.00;78.82;;;;;;;;;;5014777;28;20073;-65
2023/07/08 07:51:59;;;;;;;58.88;55.85;;;;;;;;;;5013060;28;20495;-65
2023/07/08 07:54:24;;;;;;;84.13;79.72;;;;;;;;;;5014259;28;20034;-65
2023/07/08 07:56:50;;;;;;;67.10;63.70;;;;;;;;;;5013621;28;20034;-65
2023/07/08 07:59:15;;;;;;;81.55;77.50;;;;;;;;;;5016409;28;20320;-65
2023/07/08 08:01:42;;;;;;;50.97;48.40;;;;;;;;;;5013384;28;20057;-65
2023/07/08 08:04:08;;;;;;;76.68;72.72;;;;;;;;;;5011623;28;20045;-65
2023/07/08 08:06:34;;;;;;;36.85;34.95;;;;;;;;;;5017846;28;20112;-65
2023/07/08 08:08:59;;;;;;;42.65;40.40;;;;;;;;;;5011596;28;20033;-65
2023/07/08 08:11:25;;;;;;;42.63;40.42;;;;;;;;;;5012107;28;20140;-65
2023/07/08 08:13:51;;;;;;;34.60;32.70;;;;;;;;;;5012990;28;20113;-66
2023/07/08 08:16:17;;;;;;;34.58;32.65;;;;;;;;;;5010807;28;20091;-67
2023/07/08 08:18:42;;;;;;;32.65;30.83;;;;;;;;;;5014833;28;20037;-64
2023/07/08 08:21:07;;;;;;;38.85;36.83;;;;;;;;;;5015527;28;20127;-67
2023/07/08 08:23:33;;;;;;;40.05;38.00;;;;;;;;;;5011128;28;20546;-66
2023/07/08 08:25:58;;;;;;;27.88;26.40;;;;;;;;;;5012324;28;20426;-68
2023/07/08 08:28:24;;;;;;;52.78;49.97;;;;;;;;;;5012631;28;20498;-69
2023/07/08 08:30:50;;;;;;;65.10;61.78;;;;;;;;;;5012494;28;20042;-69
2023/07/08 08:33:16;;;;;;;92.25;87.70;;;;;;;;;;5012061;28;20033;-68
2023/07/08 08:35:43;;;;;;;90.13;85.68;;;;;;;;;;5012140;28;20029;-68
2023/07/08 08:38:08;;;;;;;70.80;67.22;;;;;;;;;;5011425;28;20492;-68
2023/07/08 08:40:34;;;;;;;60.08;57.03;;;;;;;;;;5012654;28;20041;-68
2023/07/08 08:43:03;;;;;;;133.45;126.82;;;;;;;;;;5010735;28;20117;-68
2023/07/08 08:45:36;;;;;;;84.32;80.15;;;;;;;;;;5013335;28;20038;-68
2023/07/08 08:48:04;;;;;;;67.78;64.40;;;;;;;;;;5017254;28;20033;-67
2023/07/08 08:50:32;;;;;;;80.63;76.50;;;;;;;;;;5016673;28;20033;-69
2023/07/08 08:53:00;;;;;;;119.30;113.43;;;;;;;;;;5012550;28;20044;-68
2023/07/08 08:55:26;;;;;;;153.73;146.18;;;;;;;;;;5017623;28;20499;-67
2023/07/08 08:58:30;;;;;;;170.90;162.50;;;;;;;;;;5016616;28;20048;-69
2023/07/08 09:01:07;;;;;;;188.90;179.43;;;;;;;;;;5017596;28;20124;-69
2023/07/08 09:03:59;;;;;;;173.30;164.70;;;;;;;;;;5020058;28;20095;-69
2023/07/08 09:06:26;;;;;;;176.90;168.13;;;;;;;;;;5016258;28;20042;-68
2023/07/08 09:08:53;;;;;;;165.75;157.57;;;;;;;;;;5019331;28;20088;-68
2023/07/08 09:11:53;;;;;;;105.95;100.68;;;;;;;;;;5016380;28;20037;-69
2023/07/08 09:14:27;;;;;;;167.77;159.55;;;;;;;;;;5012641;28;20033;-68
2023/07/08 09:16:58;;;;;;;97.25;92.45;;;;;;;;;;5015782;28;20029;-69
2023/07/08 09:19:28;;;;;;;39.95;37.85;;;;;;;;;;5016908;28;20041;-69
2023/07/08 09:22:23;;;;;;;39.10;37.05;;;;;;;;;;5015471;28;20048;-68
2023/07/08 09:24:51;;;;;;;64.45;61.17;;;;;;;;;;5004047;28;20129;-68
2023/07/08 09:27:17;;;;;;;73.97;70.25;;;;;;;;;;5016222;28;20363;-69
2023/07/08 09:29:42;;;;;;;29.15;27.55;;;;;;;;;;5015344;28;20029;-70
2023/07/08 09:32:23;;;;;;;35.28;33.40;;;;;;;;;;5015302;28;20735;-68
2023/07/08 09:34:55;;;;;;;32.20;30.45;;;;;;;;;;5014135;28;20033;-68
2023/07/08 09:37:26;;;;;;;32.47;30.77;;;;;;;;;;5014632;28;20029;-69
2023/07/08 09:39:53;;;;;;;31.88;30.17;;;;;;;;;;5015424;28;20133;-68
2023/07/08 09:42:20;;;;;;;33.53;31.70;;;;;;;;;;5015618;28;20545;-68
2023/07/08 09:44:46;;;;;;;36.05;34.10;;;;;;;;;;5012498;28;20053;-69
2023/07/08 09:47:22;;;;;;;34.88;33.00;;;;;;;;;;5012832;28;20104;-68
2023/07/08 09:49:47;;;;;;;36.97;35.03;;;;;;;;;;5015759;28;20061;-68
2023/07/08 09:52:13;;;;;;;37.35;35.35;;;;;;;;;;5014797;28;20497;-68
2023/07/08 09:54:40;;;;;;;36.45;34.55;;;;;;;;;;5013949;28;20121;-68
2023/07/08 09:57:19;;;;;;;38.45;36.45;;;;;;;;;;5015784;28;20137;-68
2023/07/08 09:59:52;;;;;;;35.42;33.60;;;;;;;;;;5014691;28;20115;-68
2023/07/08 10:02:40;;;;;;;35.75;33.85;;;;;;;;;;5016930;28;20045;-68
2023/07/08 10:05:20;;;;;;;36.33;34.42;;;;;;;;;;5013362;28;20048;-68
2023/07/08 10:07:46;;;;;;;;;;;;;;;;;;5016060;28;20030;-68
2023/07/08 10:10:17;;;;;;;36.70;34.72;;;;;;;;;;5015534;28;20809;-68
2023/07/08 10:12:53;;;;;;;35.20;33.40;;;;;;;;;;5014538;28;20625;-68
2023/07/08 10:15:26;;;;;;;36.83;34.67;;;;;;;;;;5012477;28;20895;-68
2023/07/08 10:17:53;;;;;;;38.55;36.45;;;;;;;;;;5023630;28;20504;-68
2023/07/08 10:20:19;;;;;;;46.63;44.22;;;;;;;;;;5015641;28;20053;-68
2023/07/08 10:23:04;;;;;;;38.53;36.50;;;;;;;;;;5013609;28;20038;-68
2023/07/08 10:25:55;;;;;;;61.97;58.83;;;;;;;;;;5014436;28;20034;-68
2023/07/08 10:28:26;;;;;;;38.97;36.97;;;;;;;;;;5014928;28;20037;-68
2023/07/08 10:30:57;;;;;;;42.08;39.88;;;;;;;;;;5014531;28;20508;-68
2023/07/08 10:33:46;;;;;;;45.65;43.13;;;;;;;;;;5013833;28;20041;-68
2023/07/08 10:36:36;;;;;;;47.90;45.40;;;;;;;;;;5014628;28;20498;-68
2023/07/08 10:39:14;;;;;;;47.25;44.83;;;;;;;;;;5015075;28;20065;-68
2023/07/08 10:42:03;;;;;;;51.10;48.42;;;;;;;;;;5016023;28;20487;-68
2023/07/08 10:44:46;;;;;;;63.05;59.78;;;;;;;;;;5013129;28;20542;-68
2023/07/08 10:47:30;;;;;;;63.25;60.05;;;;;;;;;;5013222;28;20049;-68
2023/07/08 10:49:55;;;;;;;68.35;64.75;;;;;;;;;;5012451;28;20092;-68
2023/07/08 10:52:50;;;;;;;79.55;75.22;;;;;;;;;;5012897;28;20041;-68
2023/07/08 10:55:48;;;;;;;67.53;64.03;;;;;;;;;;5013608;28;20091;-69
2023/07/08 10:58:34;;;;;;;71.70;68.10;;;;;;;;;;5014741;28;20117;-70
2023/07/08 11:01:13;;;;;;;74.65;70.85;;;;;;;;;;5013064;28;20037;-67
2023/07/08 11:04:09;;;;;;;72.93;69.30;;;;;;;;;;5014421;28;20045;-69
2023/07/08 11:06:43;;;;;;;65.13;61.72;;;;;;;;;;5014219;28;20072;-67
2023/07/08 11:09:13;;;;;;;70.20;66.70;;;;;;;;;;5011995;28;20041;-67
2023/07/08 11:12:05;;;;;;;74.53;70.75;;;;;;;;;;5015432;28;20033;-67
2023/07/08 11:14:45;;;;;;;60.08;56.97;;;;;;;;;;5011699;28;20042;-67
2023/07/08 11:17:37;;;;;;;76.47;72.57;;;;;;;;;;5011812;28;20539;-67
2023/07/08 11:20:16;;;;;;;81.60;77.55;;;;;;;;;;5012193;28;20037;-68
2023/07/08 11:23:09;;;;;;;80.90;76.07;;;;;;;;;;5009971;28;20041;-67
2023/07/08 11:25:35;;;;;;;83.10;78.95;;;;;;;;;;5013062;28;20029;-69
2023/07/08 11:28:05;;;;;;;79.70;75.72;;;;;;;;;;5014999;28;20071;-65
2023/07/08 11:30:33;;;;;;;85.60;81.35;;;;;;;;;;5015045;28;20120;-65
2023/07/08 11:33:11;;;;;;;85.05;80.72;;;;;;;;;;5012393;28;20363;-66
2023/07/08 11:35:40;;;;;;;85.22;81.03;;;;;;;;;;5015181;28;20515;-66
2023/07/08 11:38:09;;;;;;;77.38;73.55;;;;;;;;;;5014694;28;20475;-66
2023/07/08 11:40:51;;;;;;;93.93;89.22;;;;;;;;;;5009356;28;20080;-68
2023/07/08 11:43:16;;;;;;;89.32;84.93;;;;;;;;;;5013213;28;20347;-67
2023/07/08 11:45:43;;;;;;;92.63;87.95;;;;;;;;;;5014494;28;20037;-66
2023/07/08 11:48:30;;;;;;;104.13;99.03;;;;;;;;;;5011315;28;20522;-67
2023/07/08 11:50:57;;;;;;;117.32;111.53;;;;;;;;;;5014587;28;20116;-65
2023/07/08 11:53:28;;;;;;;100.63;95.65;;;;;;;;;;5017037;28;20061;-66
2023/07/08 11:56:00;;;;;;;102.63;97.53;;;;;;;;;;5015186;28;20034;-66
2023/07/08 11:58:31;;;;;;;95.60;90.72;;;;;;;;;;5011015;28;20257;-68
2023/07/08 12:01:13;;;;;;;98.25;93.40;;;;;;;;;;5003531;28;20044;-65
2023/07/08 12:03:51;;;;;;;120.43;114.47;;;;;;;;;;5014614;28;20034;-65
2023/07/08 12:06:25;;;;;;;87.25;82.78;;;;;;;;;;5011280;28;20041;-66
2023/07/08 12:08:53;;;;;;;81.90;77.80;;;;;;;;;;5011616;28;20029;-66
2023/07/08 12:11:18;;;;;;;110.13;104.68;;;;;;;;;;5013852;28;20041;-65
2023/07/08 12:13:44;;;;;;;123.63;117.43;;;;;;;;;;5020427;28;20052;-65
2023/07/08 12:16:12;;;;;;;117.43;111.65;;;;;;;;;;5012340;28;20144;-67
2023/07/08 12:18:45;;;;;;;117.65;111.72;;;;;;;;;;5012966;28;20045;-66
2023/07/08 12:21:16;;;;;;;120.60;114.55;;;;;;;;;;5009847;28;20144;-63
2023/07/08 12:23:47;;;;;;;121.68;115.60;;;;;;;;;;5009067;28;20025;-63
2023/07/08 12:26:14;;;;;;;133.00;126.38;;;;;;;;;;5011167;28;20029;-65
2023/07/08 12:28:41;;;;;;;133.50;126.90;;;;;;;;;;5012134;28;20562;-65
2023/07/08 12:31:16;;;;;;;126.82;119.15;;;;;;;;;;5006574;28;20096;-66
2023/07/08 12:33:41;;;;;;;143.95;136.75;;;;;;;;;;5009240;28;20149;-65
2023/07/08 12:36:13;;;;;;;132.65;126.05;;;;;;;;;;5011061;28;20127;-66
2023/07/08 12:38:41;;;;;;;140.77;133.77;;;;;;;;;;4997988;28;20124;-64
2023/07/08 12:41:18;;;;;;;134.55;127.88;;;;;;;;;;5012686;28;20033;-66
2023/07/08 12:43:45;;;;;;;147.32;140.05;;;;;;;;;;5011044;28;20034;-66
2023/07/08 12:46:52;;;;;;;;;;;;;;;;;;;;;
2023/07/08 12:49:48;;;;;;;150.70;143.20;;;;;;;;;;5005879;28;20037;-68
2023/07/08 12:52:22;;;;;;;144.13;136.82;;;;;;;;;;5014586;28;20030;-69
2023/07/08 12:54:47;;;;;;;159.05;151.18;;;;;;;;;;5013973;28;20121;-70
2023/07/08 12:57:15;;;;;;;154.18;146.40;;;;;;;;;;5014010;28;20099;-68
2023/07/08 12:59:41;;;;;;;133.90;127.03;;;;;;;;;;5012582;28;20116;-64
2023/07/08 13:02:16;;;;;;;146.73;139.38;;;;;;;;;;5010511;28;20137;-64
2023/07/08 13:04:44;;;;;;;155.07;147.30;;;;;;;;;;5014722;28;20025;-65
2023/07/08 13:07:44;;;;;;;150.05;142.43;;;;;;;;;;5011413;28;20037;-63
2023/07/08 13:10:20;;;;;;;151.52;143.93;;;;;;;;;;5007423;28;20052;-64
2023/07/08 13:12:47;;;;;;;153.50;145.93;;;;;;;;;;5009178;28;20037;-69
2023/07/08 13:15:21;;;;;;;137.40;130.25;;;;;;;;;;5007277;28;20049;-64
2023/07/08 13:17:46;;;;;;;143.43;136.30;;;;;;;;;;5009737;28;20042;-69
2023/07/08 13:20:17;;;;;;;151.13;143.52;;;;;;;;;;5016848;28;20095;-69
2023/07/08 13:22:46;;;;;;;132.77;126.15;;;;;;;;;;5010278;28;20033;-69
2023/07/08 13:25:17;;;;;;;152.30;144.68;;;;;;;;;;5010674;28;20092;-69
2023/07/08 13:27:54;;;;;;;154.95;147.27;;;;;;;;;;5011492;28;20034;-69
2023/07/08 13:30:23;;;;;;;148.63;141.25;;;;;;;;;;5011142;28;20072;-71
2023/07/08 13:32:53;;;;;;;163.52;155.40;;;;;;;;;;5012224;28;20095;-69
2023/07/08 13:35:34;;;;;;;154.10;146.50;;;;;;;;;;5014527;28;20502;-68
2023/07/08 13:38:00;;;;;;;166.13;157.82;;;;;;;;;;5019020;28;20053;-69
2023/07/08 13:40:27;;;;;;;161.57;153.50;;;;;;;;;;5014000;28;20478;-68
2023/07/08 13:42:53;;;;;;;153.10;145.10;;;;;;;;;;5015884;28;20044;-72
2023/07/08 13:45:27;;;;;;;174.50;165.90;;;;;;;;;;5015350;28;20045;-67
2023/07/08 13:48:06;;;;;;;166.02;157.80;;;;;;;;;;5013268;28;20033;-71
2023/07/08 13:50:40;;;;;;;169.93;161.50;;;;;;;;;;5022651;28;20423;-66
2023/07/08 13:53:23;;;;;;;153.57;145.95;;;;;;;;;;5014509;28;20040;-67
2023/07/08 13:55:49;;;;;;;161.23;153.13;;;;;;;;;;5013610;28;20034;-65
2023/07/08 13:58:17;;;;;;;164.77;156.63;;;;;;;;;;5014845;28;20494;-66
2023/07/08 14:00:42;;;;;;;162.77;154.65;;;;;;;;;;5013192;28;20168;-66
2023/07/08 14:03:11;;;;;;;164.20;156.02;;;;;;;;;;5012207;28;20041;-68
2023/07/08 14:05:38;;;;;;;142.80;135.70;;;;;;;;;;5025007;28;20090;-66
2023/07/08 14:08:11;;;;;;;147.38;139.98;;;;;;;;;;5020232;28;20091;-68
2023/07/08 14:10:37;;;;;;;141.20;134.20;;;;;;;;;;5019483;28;20419;-68
2023/07/08 14:13:03;;;;;;;144.50;137.32;;;;;;;;;;5014096;28;20037;-67
2023/07/08 14:15:28;;;;;;;145.20;137.63;;;;;;;;;;5013769;28;20116;-68
2023/07/08 14:17:53;;;;;;;152.73;145.13;;;;;;;;;;5016639;28;20363;-71
2023/07/08 14:20:19;;;;;;;143.43;136.32;;;;;;;;;;5012633;28;20038;-72
2023/07/08 14:22:44;;;;;;;140.00;133.07;;;;;;;;;;5010334;28;20096;-70
2023/07/08 14:25:10;;;;;;;134.32;127.70;;;;;;;;;;5013213;28;20455;-70
2023/07/08 14:27:35;;;;;;;137.60;130.43;;;;;;;;;;5013003;28;20030;-71